Time,TemperatureF,DewpointF,PressureIn,WindDirection,WindDirectionDegrees,WindSpeedMPH,WindSpeedGustMPH,Humidity,HourlyPrecipIn,Conditions,Clouds,dailyrainin,SoftwareType,DateUTC
2013-04-02 00:02:00,33.7,31.0,30.20,West,267,0.0,0.0,88,0.00,,,0.00,weatherlink.com 1.10,2013-04-02 05:02:00,
2013-04-02 00:18:00,33.4,31.0,30.20,West,267,0.0,0.0,89,0.00,,,0.00,weatherlink.com 1.10,2013-04-02 05:18:00,
2013-04-02 00:33:00,33.7,31.0,30.20,West,267,0.0,0.0,89,0.00,,,0.00,weatherlink.com 1.10,2013-04-02 05:33:00,
2013-04-02 00:48:00,34.4,31.0,30.20,West,267,0.0,1.0,87,0.00,,,0.00,weatherlink.com 1.10,2013-04-02 05:48:00,
2013-04-02 01:03:00,35.2,31.0,30.20,West,267,0.0,0.0,84,0.00,,,0.00,weatherlink.com 1.10,2013-04-02 06:03:00,
2013-04-02 01:18:00,36.1,30.0,30.21,WSW,248,1.0,3.0,78,0.00,,,0.00,weatherlink.com 1.10,2013-04-02 06:18:00,
2013-04-02 01:33:00,37.5,30.0,30.21,West,275,0.0,2.0,73,0.00,,,0.00,weatherlink.com 1.10,2013-04-02 06:33:00,
2013-04-02 01:48:00,37.5,30.0,30.22,WSW,248,0.0,2.0,74,0.00,,,0.00,weatherlink.com 1.10,2013-04-02 06:48:00,
2013-04-02 02:03:00,36.7,29.0,30.22,WSW,258,0.0,2.0,75,0.00,,,0.00,weatherlink.com 1.10,2013-04-02 07:03:00,
2013-04-02 02:18:00,36.5,29.0,30.22,WSW,238,0.0,3.0,75,0.00,,,0.00,weatherlink.com 1.10,2013-04-02 07:18:00,
2013-04-02 02:35:00,37.2,29.0,30.23,SW,236,0.0,2.0,73,0.00,,,0.00,weatherlink.com 1.10,2013-04-02 07:35:00,
2013-04-02 02:48:00,37.5,30.0,30.23,SSW,213,0.0,2.0,73,0.00,,,0.00,weatherlink.com 1.10,2013-04-02 07:48:00,
2013-04-02 03:03:00,37.5,30.0,30.23,SW,230,0.0,1.0,74,0.00,,,0.00,weatherlink.com 1.10,2013-04-02 08:03:00,
2013-04-02 03:18:00,37.8,28.0,30.23,WSW,244,0.0,1.0,69,0.00,,,0.00,weatherlink.com 1.10,2013-04-02 08:18:00,
2013-04-02 03:33:00,38.2,29.0,30.23,WSW,237,0.0,2.0,70,0.00,,,0.00,weatherlink.com 1.10,2013-04-02 08:33:00,
2013-04-02 03:48:00,38.6,28.0,30.23,WSW,258,0.0,3.0,67,0.00,,,0.00,weatherlink.com 1.10,2013-04-02 08:48:00,
2013-04-02 04:03:00,38.7,29.0,30.23,WSW,242,2.0,4.0,67,0.00,,,0.00,weatherlink.com 1.10,2013-04-02 09:03:00,
2013-04-02 04:18:00,38.8,27.0,30.24,SW,225,0.0,5.0,64,0.00,,,0.00,weatherlink.com 1.10,2013-04-02 09:18:00,
2013-04-02 04:33:00,38.9,28.0,30.24,WNW,298,0.0,3.0,64,0.00,,,0.00,weatherlink.com 1.10,2013-04-02 09:33:00,
2013-04-02 04:48:00,38.8,27.0,30.24,WNW,292,0.0,3.0,63,0.00,,,0.00,weatherlink.com 1.10,2013-04-02 09:48:00,
2013-04-02 05:03:00,38.6,28.0,30.24,West,275,0.0,3.0,65,0.00,,,0.00,weatherlink.com 1.10,2013-04-02 10:03:00,
2013-04-02 05:18:00,38.5,27.0,30.25,West,275,1.0,4.0,64,0.00,,,0.00,weatherlink.com 1.10,2013-04-02 10:18:00,
2013-04-02 05:33:00,38.4,26.0,30.26,WSW,248,1.0,4.0,61,0.00,,,0.00,weatherlink.com 1.10,2013-04-02 10:33:00,
2013-04-02 05:48:00,37.9,26.0,30.26,West,274,0.0,2.0,62,0.00,,,0.00,weatherlink.com 1.10,2013-04-02 10:48:00,
2013-04-02 06:03:00,37.6,26.0,30.26,West,259,0.0,4.0,64,0.00,,,0.00,weatherlink.com 1.10,2013-04-02 11:03:00,
2013-04-02 06:18:00,37.5,26.0,30.27,West,275,0.0,3.0,63,0.00,,,0.00,weatherlink.com 1.10,2013-04-02 11:18:00,
2013-04-02 06:33:00,37.0,26.0,30.28,West,261,0.0,2.0,65,0.00,,,0.00,weatherlink.com 1.10,2013-04-02 11:33:00,
2013-04-02 06:48:00,36.6,27.0,30.29,West,269,0.0,1.0,69,0.00,,,0.00,weatherlink.com 1.10,2013-04-02 11:48:00,
2013-04-02 07:03:00,36.7,26.0,30.29,WNW,293,0.0,4.0,66,0.00,,,0.00,weatherlink.com 1.10,2013-04-02 12:03:00,
2013-04-02 07:18:00,36.9,26.0,30.29,West,275,2.0,3.0,64,0.00,,,0.00,weatherlink.com 1.10,2013-04-02 12:18:00,
2013-04-02 07:33:00,37.7,26.0,30.30,WSW,241,2.0,4.0,63,0.00,,,0.00,weatherlink.com 1.10,2013-04-02 12:33:00,
2013-04-02 07:48:00,38.7,26.0,30.30,West,279,6.0,6.0,61,0.00,,,0.00,weatherlink.com 1.10,2013-04-02 12:48:00,
2013-04-02 08:03:00,40.1,26.0,30.30,WNW,286,3.0,7.0,57,0.00,,,0.00,weatherlink.com 1.10,2013-04-02 13:03:00,
2013-04-02 08:19:00,40.8,25.0,30.30,WNW,282,7.0,10.0,54,0.00,,,0.00,weatherlink.com 1.10,2013-04-02 13:19:00,
2013-04-02 08:34:00,41.5,25.0,30.31,WNW,302,2.0,10.0,53,0.00,,,0.00,weatherlink.com 1.10,2013-04-02 13:34:00,
2013-04-02 08:49:00,41.5,24.0,30.31,NNW,340,5.0,11.0,50,0.00,,,0.00,weatherlink.com 1.10,2013-04-02 13:49:00,
2013-04-02 09:04:00,42.0,23.0,30.31,NW,325,8.0,10.0,48,0.00,,,0.00,weatherlink.com 1.10,2013-04-02 14:04:00,
2013-04-02 09:19:00,42.7,27.0,30.31,West,265,5.0,9.0,55,0.00,,,0.00,weatherlink.com 1.10,2013-04-02 14:19:00,
2013-04-02 09:34:00,42.7,24.0,30.31,NW,314,10.0,10.0,48,0.00,,,0.00,weatherlink.com 1.10,2013-04-02 14:34:00,
2013-04-02 09:49:00,43.8,24.0,30.32,West,281,5.0,9.0,46,0.00,,,0.00,weatherlink.com 1.10,2013-04-02 14:49:00,
2013-04-02 10:04:00,44.8,24.0,30.32,NW,320,4.0,9.0,44,0.00,,,0.00,weatherlink.com 1.10,2013-04-02 15:04:00,
2013-04-02 10:19:00,45.0,24.0,30.31,North,349,5.0,10.0,44,0.00,,,0.00,weatherlink.com 1.10,2013-04-02 15:19:00,
2013-04-02 10:34:00,44.4,23.0,30.31,WSW,246,4.0,11.0,43,0.00,,,0.00,weatherlink.com 1.10,2013-04-02 15:34:00,
2013-04-02 10:49:00,45.3,24.0,30.31,West,263,7.0,12.0,43,0.00,,,0.00,weatherlink.com 1.10,2013-04-02 15:49:00,
2013-04-02 11:04:00,45.6,24.0,30.31,South,189,1.0,8.0,43,0.00,,,0.00,weatherlink.com 1.10,2013-04-02 16:04:00,
2013-04-02 11:19:00,46.0,24.0,30.30,NNW,337,3.0,9.0,42,0.00,,,0.00,weatherlink.com 1.10,2013-04-02 16:19:00,
2013-04-02 11:34:00,46.4,25.0,30.30,South,186,2.0,8.0,43,0.00,,,0.00,weatherlink.com 1.10,2013-04-02 16:34:00,
2013-04-02 11:49:00,46.5,19.0,30.30,WNW,293,7.0,11.0,34,0.00,,,0.00,weatherlink.com 1.10,2013-04-02 16:49:00,
2013-04-02 12:04:00,45.8,21.0,30.30,SSW,206,1.0,8.0,38,0.00,,,0.00,weatherlink.com 1.10,2013-04-02 17:04:00,
2013-04-02 12:19:00,47.7,22.0,30.30,SSW,211,5.0,9.0,37,0.00,,,0.00,weatherlink.com 1.10,2013-04-02 17:19:00,
2013-04-02 12:34:00,47.0,19.0,30.30,NW,309,3.0,6.0,33,0.00,,,0.00,weatherlink.com 1.10,2013-04-02 17:34:00,
2013-04-02 13:05:00,45.8,19.0,30.29,WSW,244,4.0,6.0,35,0.00,,,0.00,weatherlink.com 1.10,2013-04-02 18:05:00,
2013-04-02 13:19:00,45.3,20.0,30.29,West,267,1.0,6.0,36,0.00,,,0.00,weatherlink.com 1.10,2013-04-02 18:19:00,
2013-04-02 13:34:00,46.3,24.0,30.29,WSW,238,1.0,6.0,42,0.00,,,0.00,weatherlink.com 1.10,2013-04-02 18:34:00,
2013-04-02 13:49:00,46.3,22.0,30.28,WNW,284,4.0,5.0,38,0.00,,,0.00,weatherlink.com 1.10,2013-04-02 18:49:00,
2013-04-02 14:04:00,46.3,21.0,30.28,SSW,193,4.0,7.0,37,0.00,,,0.00,weatherlink.com 1.10,2013-04-02 19:04:00,
2013-04-02 14:19:00,45.8,23.0,30.28,SSW,208,2.0,5.0,41,0.00,,,0.00,weatherlink.com 1.10,2013-04-02 19:19:00,
2013-04-02 14:34:00,46.0,20.0,30.27,SW,220,2.0,6.0,35,0.00,,,0.00,weatherlink.com 1.10,2013-04-02 19:34:00,
2013-04-02 14:49:00,45.8,19.0,30.27,West,271,3.0,4.0,35,0.00,,,0.00,weatherlink.com 1.10,2013-04-02 19:49:00,
2013-04-02 15:04:00,45.8,21.0,30.27,WNW,288,3.0,5.0,38,0.00,,,0.00,weatherlink.com 1.10,2013-04-02 20:04:00,
2013-04-02 15:19:00,45.8,21.0,30.27,SSW,207,0.0,5.0,38,0.00,,,0.00,weatherlink.com 1.10,2013-04-02 20:19:00,
2013-04-02 15:34:00,46.2,19.0,30.26,West,271,0.0,4.0,34,0.00,,,0.00,weatherlink.com 1.10,2013-04-02 20:34:00,
2013-04-02 15:49:00,46.5,23.0,30.26,SSW,209,2.0,5.0,40,0.00,,,0.00,weatherlink.com 1.10,2013-04-02 20:49:00,
2013-04-02 16:04:00,46.3,20.0,30.26,West,264,2.0,3.0,35,0.00,,,0.00,weatherlink.com 1.10,2013-04-02 21:04:00,
2013-04-02 16:19:00,46.4,21.0,30.26,ESE,109,0.0,5.0,37,0.00,,,0.00,weatherlink.com 1.10,2013-04-02 21:19:00,
2013-04-02 16:34:00,47.1,21.0,30.26,WSW,256,1.0,5.0,35,0.00,,,0.00,weatherlink.com 1.10,2013-04-02 21:34:00,
2013-04-02 16:49:00,46.8,20.0,30.25,WNW,296,3.0,5.0,35,0.00,,,0.00,weatherlink.com 1.10,2013-04-02 21:49:00,
2013-04-02 17:04:00,46.6,19.0,30.25,West,271,2.0,3.0,34,0.00,,,0.00,weatherlink.com 1.10,2013-04-02 22:04:00,
2013-04-02 17:19:00,46.4,22.0,30.25,SW,235,0.0,4.0,39,0.00,,,0.00,weatherlink.com 1.10,2013-04-02 22:19:00,
2013-04-02 17:34:00,46.3,22.0,30.25,SSE,157,2.0,3.0,39,0.00,,,0.00,weatherlink.com 1.10,2013-04-02 22:34:00,
2013-04-02 17:49:00,46.3,23.0,30.25,SSW,208,1.0,5.0,40,0.00,,,0.00,weatherlink.com 1.10,2013-04-02 22:49:00,
2013-04-02 18:04:00,46.5,27.0,30.25,SSE,157,0.0,3.0,47,0.00,,,0.00,weatherlink.com 1.10,2013-04-02 23:04:00,
2013-04-02 18:19:00,46.5,28.0,30.26,SSE,157,0.0,1.0,48,0.00,,,0.00,weatherlink.com 1.10,2013-04-02 23:19:00,
2013-04-02 18:34:00,46.3,28.0,30.26,SSE,156,1.0,3.0,49,0.00,,,0.00,weatherlink.com 1.10,2013-04-02 23:34:00,
2013-04-02 18:49:00,45.7,28.0,30.26,SSE,158,0.0,2.0,50,0.00,,,0.00,weatherlink.com 1.10,2013-04-02 23:49:00,
2013-04-02 19:04:00,45.1,29.0,30.26,SSE,161,0.0,1.0,53,0.00,,,0.00,weatherlink.com 1.10,2013-04-03 00:04:00,
2013-04-02 19:19:00,44.4,27.0,30.26,SSE,161,0.0,0.0,51,0.00,,,0.00,weatherlink.com 1.10,2013-04-03 00:19:00,
2013-04-02 19:34:00,43.4,27.0,30.26,SSE,161,0.0,0.0,52,0.00,,,0.00,weatherlink.com 1.10,2013-04-03 00:34:00,
2013-04-02 19:49:00,42.0,31.0,30.27,SSE,161,0.0,0.0,64,0.00,,,0.00,weatherlink.com 1.10,2013-04-03 00:49:00,
2013-04-02 20:05:00,40.3,31.0,30.27,SSE,161,0.0,0.0,70,0.00,,,0.00,weatherlink.com 1.10,2013-04-03 01:05:00,
2013-04-02 20:20:00,39.2,32.0,30.27,SSE,161,0.0,0.0,74,0.00,,,0.00,weatherlink.com 1.10,2013-04-03 01:20:00,
2013-04-02 20:34:00,38.0,31.0,30.27,SSE,161,0.0,0.0,77,0.00,,,0.00,weatherlink.com 1.10,2013-04-03 01:34:00,
2013-04-02 20:49:00,36.9,31.0,30.27,SSE,161,0.0,0.0,79,0.00,,,0.00,weatherlink.com 1.10,2013-04-03 01:49:00,
2013-04-02 21:04:00,35.9,31.0,30.27,SSE,161,0.0,0.0,83,0.00,,,0.00,weatherlink.com 1.10,2013-04-03 02:04:00,
2013-04-02 21:34:00,34.7,31.0,30.28,SSE,161,0.0,0.0,86,0.00,,,0.00,weatherlink.com 1.10,2013-04-03 02:34:00,
2013-04-02 21:49:00,34.4,31.0,30.28,SSE,161,0.0,0.0,86,0.00,,,0.00,weatherlink.com 1.10,2013-04-03 02:49:00,
2013-04-02 22:04:00,33.9,30.0,30.28,SSE,161,0.0,0.0,86,0.00,,,0.00,weatherlink.com 1.10,2013-04-03 03:04:00,
2013-04-02 22:19:00,33.5,30.0,30.29,SSE,161,0.0,0.0,86,0.00,,,0.00,weatherlink.com 1.10,2013-04-03 03:19:00,
2013-04-02 22:49:00,32.8,29.0,30.28,SSE,161,0.0,0.0,87,0.00,,,0.00,weatherlink.com 1.10,2013-04-03 03:49:00,
2013-04-02 23:05:00,32.3,29.0,30.28,SSE,161,0.0,0.0,86,0.00,,,0.00,weatherlink.com 1.10,2013-04-03 04:05:00,
2013-04-02 23:20:00,31.9,29.0,30.28,SSE,161,0.0,0.0,87,0.00,,,0.00,weatherlink.com 1.10,2013-04-03 04:20:00,
2013-04-02 23:35:00,31.5,28.0,30.28,SSE,161,0.0,0.0,86,0.00,,,0.00,weatherlink.com 1.10,2013-04-03 04:35:00,
2013-04-02 23:50:00,31.3,29.0,30.28,SSE,161,0.0,0.0,89,0.00,,,0.00,weatherlink.com 1.10,2013-04-03 04:50:00,